sensor_id;sensor_type;location;lat;lon;timestamp;pressure;altitude;pressure_sealevel;temperature
23208;BMP180;11773;52.570;13.052;2024-01-11T00:00:57;102848.00;;;-0.70
23208;BMP180;11773;52.570;13.052;2024-01-11T00:03:28;102850.00;;;-0.70
23208;BMP180;11773;52.570;13.052;2024-01-11T00:05:57;102865.00;;;-0.70
23208;BMP180;11773;52.570;13.052;2024-01-11T00:08:27;102842.00;;;-0.70
23208;BMP180;11773;52.570;13.052;2024-01-11T00:10:56;102850.00;;;-0.70
23208;BMP180;11773;52.570;13.052;2024-01-11T00:13:26;102848.00;;;-0.70
23208;BMP180;11773;52.570;13.052;2024-01-11T00:15:56;102862.00;;;-0.70
23208;BMP180;11773;52.570;13.052;2024-01-11T00:18:26;102850.00;;;-0.70
23208;BMP180;11773;52.570;13.052;2024-01-11T00:20:55;102837.00;;;-0.70
23208;BMP180;11773;52.570;13.052;2024-01-11T00:23:25;102816.00;;;-0.70
23208;BMP180;11773;52.570;13.052;2024-01-11T00:25:55;102832.00;;;-0.70
23208;BMP180;11773;52.570;13.052;2024-01-11T00:28:24;102830.00;;;-0.70
23208;BMP180;11773;52.570;13.052;2024-01-11T00:30:54;102821.00;;;-0.70
23208;BMP180;11773;52.570;13.052;2024-01-11T00:33:24;102822.00;;;-0.70
23208;BMP180;11773;52.570;13.052;2024-01-11T00:35:53;102814.00;;;-0.70
23208;BMP180;11773;52.570;13.052;2024-01-11T00:38:23;102810.00;;;-0.70
23208;BMP180;11773;52.570;13.052;2024-01-11T00:40:53;102780.00;;;-0.70
23208;BMP180;11773;52.570;13.052;2024-01-11T00:43:22;102781.00;;;-0.70
23208;BMP180;11773;52.570;13.052;2024-01-11T00:45:52;102774.00;;;-0.70
23208;BMP180;11773;52.570;13.052;2024-01-11T00:48:21;102786.00;;;-0.70
23208;BMP180;11773;52.570;13.052;2024-01-11T00:50:51;102776.00;;;-0.70
23208;BMP180;11773;52.570;13.052;2024-01-11T00:54:03;102766.00;;;-0.60
23208;BMP180;11773;52.570;13.052;2024-01-11T00:56:33;102781.00;;;-0.70
23208;BMP180;11773;52.570;13.052;2024-01-11T00:59:04;102762.00;;;-0.70
23208;BMP180;11773;52.570;13.052;2024-01-11T01:01:33;102753.00;;;-0.60
23208;BMP180;11773;52.570;13.052;2024-01-11T01:04:03;102764.00;;;-0.60
23208;BMP180;11773;52.570;13.052;2024-01-11T01:06:33;102752.00;;;-0.60
23208;BMP180;11773;52.570;13.052;2024-01-11T01:09:02;102747.00;;;-0.60
23208;BMP180;11773;52.570;13.052;2024-01-11T01:11:32;102744.00;;;-0.50
23208;BMP180;11773;52.570;13.052;2024-01-11T01:14:02;102726.00;;;-0.50
23208;BMP180;11773;52.570;13.052;2024-01-11T01:16:32;102741.00;;;-0.50
23208;BMP180;11773;52.570;13.052;2024-01-11T01:19:01;102742.00;;;-0.50
23208;BMP180;11773;52.570;13.052;2024-01-11T01:21:31;102727.00;;;-0.50
23208;BMP180;11773;52.570;13.052;2024-01-11T01:24:01;102727.00;;;-0.40
23208;BMP180;11773;52.570;13.052;2024-01-11T01:26:32;102746.00;;;-0.40
23208;BMP180;11773;52.570;13.052;2024-01-11T01:29:02;102735.00;;;-0.40
23208;BMP180;11773;52.570;13.052;2024-01-11T01:31:31;102751.00;;;-0.40
23208;BMP180;11773;52.570;13.052;2024-01-11T01:34:03;102759.00;;;-0.40
23208;BMP180;11773;52.570;13.052;2024-01-11T01:36:33;102759.00;;;-0.40
23208;BMP180;11773;52.570;13.052;2024-01-11T01:39:03;102757.00;;;-0.30
23208;BMP180;11773;52.570;13.052;2024-01-11T01:41:33;102742.00;;;-0.30
23208;BMP180;11773;52.570;13.052;2024-01-11T01:44:02;102748.00;;;-0.30
23208;BMP180;11773;52.570;13.052;2024-01-11T01:46:33;102752.00;;;-0.30
23208;BMP180;11773;52.570;13.052;2024-01-11T01:49:04;102745.00;;;-0.20
23208;BMP180;11773;52.570;13.052;2024-01-11T01:51:34;102753.00;;;-0.20
23208;BMP180;11773;52.570;13.052;2024-01-11T01:54:04;102745.00;;;-0.20
23208;BMP180;11773;52.570;13.052;2024-01-11T01:56:34;102738.00;;;-0.20
23208;BMP180;11773;52.570;13.052;2024-01-11T01:59:04;102756.00;;;-0.10
23208;BMP180;11773;52.570;13.052;2024-01-11T02:01:34;102769.00;;;-0.10
23208;BMP180;11773;52.570;13.052;2024-01-11T02:04:04;102765.00;;;-0.10
23208;BMP180;11773;52.570;13.052;2024-01-11T02:06:35;102761.00;;;-0.10
23208;BMP180;11773;52.570;13.052;2024-01-11T02:09:06;102771.00;;;0.00
23208;BMP180;11773;52.570;13.052;2024-01-11T02:11:37;102774.00;;;0.00
23208;BMP180;11773;52.570;13.052;2024-01-11T02:14:08;102794.00;;;0.00
23208;BMP180;11773;52.570;13.052;2024-01-11T02:16:38;102788.00;;;0.00
23208;BMP180;11773;52.570;13.052;2024-01-11T02:19:14;102796.00;;;0.00
23208;BMP180;11773;52.570;13.052;2024-01-11T02:21:49;102789.00;;;0.00
23208;BMP180;11773;52.570;13.052;2024-01-11T02:24:19;102802.00;;;0.00
23208;BMP180;11773;52.570;13.052;2024-01-11T02:27:05;102782.00;;;0.00
23208;BMP180;11773;52.570;13.052;2024-01-11T02:29:34;102783.00;;;0.00
23208;BMP180;11773;52.570;13.052;2024-01-11T02:32:04;102790.00;;;0.00
23208;BMP180;11773;52.570;13.052;2024-01-11T02:34:35;102802.00;;;0.00
23208;BMP180;11773;52.570;13.052;2024-01-11T02:37:06;102794.00;;;0.00
23208;BMP180;11773;52.570;13.052;2024-01-11T02:39:36;102802.00;;;0.10
23208;BMP180;11773;52.570;13.052;2024-01-11T02:42:07;102791.00;;;0.10
23208;BMP180;11773;52.570;13.052;2024-01-11T02:44:36;102787.00;;;0.10
23208;BMP180;11773;52.570;13.052;2024-01-11T02:47:06;102792.00;;;0.10
23208;BMP180;11773;52.570;13.052;2024-01-11T02:49:35;102788.00;;;0.10
23208;BMP180;11773;52.570;13.052;2024-01-11T02:52:05;102783.00;;;0.10
23208;BMP180;11773;52.570;13.052;2024-01-11T02:54:35;102756.00;;;0.10
23208;BMP180;11773;52.570;13.052;2024-01-11T02:57:05;102754.00;;;0.20
23208;BMP180;11773;52.570;13.052;2024-01-11T02:59:35;102753.00;;;0.20
23208;BMP180;11773;52.570;13.052;2024-01-11T03:02:05;102738.00;;;0.20
23208;BMP180;11773;52.570;13.052;2024-01-11T03:04:35;102747.00;;;0.20
23208;BMP180;11773;52.570;13.052;2024-01-11T03:07:04;102773.00;;;0.20
23208;BMP180;11773;52.570;13.052;2024-01-11T03:09:34;102756.00;;;0.30
23208;BMP180;11773;52.570;13.052;2024-01-11T03:12:04;102787.00;;;0.30
23208;BMP180;11773;52.570;13.052;2024-01-11T03:14:34;102784.00;;;0.30
23208;BMP180;11773;52.570;13.052;2024-01-11T03:17:05;102766.00;;;0.30
23208;BMP180;11773;52.570;13.052;2024-01-11T03:19:42;102769.00;;;0.40
23208;BMP180;11773;52.570;13.052;2024-01-11T03:22:07;102773.00;;;0.40
23208;BMP180;11773;52.570;13.052;2024-01-11T03:24:40;102768.00;;;0.40
23208;BMP180;11773;52.570;13.052;2024-01-11T03:27:10;102765.00;;;0.50
23208;BMP180;11773;52.570;13.052;2024-01-11T03:29:39;102754.00;;;0.50
23208;BMP180;11773;52.570;13.052;2024-01-11T03:32:09;102759.00;;;0.50
23208;BMP180;11773;52.570;13.052;2024-01-11T03:34:40;102760.00;;;0.50
23208;BMP180;11773;52.570;13.052;2024-01-11T03:37:10;102739.00;;;0.60
23208;BMP180;11773;52.570;13.052;2024-01-11T03:39:39;102736.00;;;0.60
23208;BMP180;11773;52.570;13.052;2024-01-11T03:42:09;102731.00;;;0.60
23208;BMP180;11773;52.570;13.052;2024-01-11T03:44:39;102722.00;;;0.60
23208;BMP180;11773;52.570;13.052;2024-01-11T03:47:09;102704.00;;;0.70
23208;BMP180;11773;52.570;13.052;2024-01-11T03:49:39;102696.00;;;0.70
23208;BMP180;11773;52.570;13.052;2024-01-11T03:52:08;102693.00;;;0.70
23208;BMP180;11773;52.570;13.052;2024-01-11T03:54:38;102695.00;;;0.80
23208;BMP180;11773;52.570;13.052;2024-01-11T03:57:07;102707.00;;;0.80
23208;BMP180;11773;52.570;13.052;2024-01-11T03:59:37;102707.00;;;0.80
23208;BMP180;11773;52.570;13.052;2024-01-11T04:02:07;102720.00;;;0.90
23208;BMP180;11773;52.570;13.052;2024-01-11T04:04:36;102723.00;;;0.90
23208;BMP180;11773;52.570;13.052;2024-01-11T04:07:06;102709.00;;;0.90
23208;BMP180;11773;52.570;13.052;2024-01-11T04:09:38;102711.00;;;0.90
23208;BMP180;11773;52.570;13.052;2024-01-11T04:12:08;102713.00;;;0.90
23208;BMP180;11773;52.570;13.052;2024-01-11T04:14:40;102712.00;;;1.00
23208;BMP180;11773;52.570;13.052;2024-01-11T04:17:10;102709.00;;;1.00
23208;BMP180;11773;52.570;13.052;2024-01-11T04:19:40;102721.00;;;1.00
23208;BMP180;11773;52.570;13.052;2024-01-11T04:22:10;102715.00;;;1.00
23208;BMP180;11773;52.570;13.052;2024-01-11T04:24:41;102718.00;;;1.10
23208;BMP180;11773;52.570;13.052;2024-01-11T04:27:11;102704.00;;;1.10
23208;BMP180;11773;52.570;13.052;2024-01-11T04:29:40;102707.00;;;1.10
23208;BMP180;11773;52.570;13.052;2024-01-11T04:32:10;102703.00;;;1.10
23208;BMP180;11773;52.570;13.052;2024-01-11T04:34:40;102713.00;;;1.20
23208;BMP180;11773;52.570;13.052;2024-01-11T04:37:10;102714.00;;;1.20
23208;BMP180;11773;52.570;13.052;2024-01-11T04:39:40;102687.00;;;1.20
23208;BMP180;11773;52.570;13.052;2024-01-11T04:42:09;102706.00;;;1.20
23208;BMP180;11773;52.570;13.052;2024-01-11T04:44:39;102705.00;;;1.20
23208;BMP180;11773;52.570;13.052;2024-01-11T04:47:08;102706.00;;;1.30
23208;BMP180;11773;52.570;13.052;2024-01-11T04:49:39;102697.00;;;1.30
23208;BMP180;11773;52.570;13.052;2024-01-11T04:52:08;102689.00;;;1.30
23208;BMP180;11773;52.570;13.052;2024-01-11T04:54:38;102683.00;;;1.40
23208;BMP180;11773;52.570;13.052;2024-01-11T04:57:07;102697.00;;;1.40
23208;BMP180;11773;52.570;13.052;2024-01-11T04:59:37;102683.00;;;1.40
23208;BMP180;11773;52.570;13.052;2024-01-11T05:02:07;102666.00;;;1.40
23208;BMP180;11773;52.570;13.052;2024-01-11T05:04:37;102667.00;;;1.50
23208;BMP180;11773;52.570;13.052;2024-01-11T05:07:06;102630.00;;;1.50
23208;BMP180;11773;52.570;13.052;2024-01-11T05:09:36;102648.00;;;1.50
23208;BMP180;11773;52.570;13.052;2024-01-11T05:12:06;102658.00;;;1.50
23208;BMP180;11773;52.570;13.052;2024-01-11T05:14:35;102678.00;;;1.60
23208;BMP180;11773;52.570;13.052;2024-01-11T05:17:05;102684.00;;;1.60
23208;BMP180;11773;52.570;13.052;2024-01-11T05:19:36;102685.00;;;1.60
23208;BMP180;11773;52.570;13.052;2024-01-11T05:22:06;102672.00;;;1.70
23208;BMP180;11773;52.570;13.052;2024-01-11T05:24:35;102671.00;;;1.70
23208;BMP180;11773;52.570;13.052;2024-01-11T05:27:05;102665.00;;;1.70
23208;BMP180;11773;52.570;13.052;2024-01-11T05:29:35;102670.00;;;1.70
23208;BMP180;11773;52.570;13.052;2024-01-11T05:32:04;102652.00;;;1.80
23208;BMP180;11773;52.570;13.052;2024-01-11T05:34:34;102679.00;;;1.80
23208;BMP180;11773;52.570;13.052;2024-01-11T05:37:04;102684.00;;;1.80
23208;BMP180;11773;52.570;13.052;2024-01-11T05:39:34;102696.00;;;1.80
23208;BMP180;11773;52.570;13.052;2024-01-11T05:42:04;102695.00;;;1.90
23208;BMP180;11773;52.570;13.052;2024-01-11T05:44:33;102684.00;;;1.90
23208;BMP180;11773;52.570;13.052;2024-01-11T05:47:03;102672.00;;;1.90
23208;BMP180;11773;52.570;13.052;2024-01-11T05:49:33;102675.00;;;2.00
23208;BMP180;11773;52.570;13.052;2024-01-11T05:52:02;102669.00;;;2.00
23208;BMP180;11773;52.570;13.052;2024-01-11T05:54:32;102667.00;;;2.00
23208;BMP180;11773;52.570;13.052;2024-01-11T05:57:02;102679.00;;;2.00
23208;BMP180;11773;52.570;13.052;2024-01-11T05:59:31;102676.00;;;2.10
23208;BMP180;11773;52.570;13.052;2024-01-11T06:02:01;102677.00;;;2.10
23208;BMP180;11773;52.570;13.052;2024-01-11T06:04:32;102672.00;;;2.10
23208;BMP180;11773;52.570;13.052;2024-01-11T06:07:02;102678.00;;;2.10
23208;BMP180;11773;52.570;13.052;2024-01-11T06:09:31;102681.00;;;2.20
23208;BMP180;11773;52.570;13.052;2024-01-11T06:12:01;102690.00;;;2.20
23208;BMP180;11773;52.570;13.052;2024-01-11T06:14:30;102687.00;;;2.20
23208;BMP180;11773;52.570;13.052;2024-01-11T06:17:00;102674.00;;;2.20
23208;BMP180;11773;52.570;13.052;2024-01-11T06:19:30;102661.00;;;2.30
23208;BMP180;11773;52.570;13.052;2024-01-11T06:21:59;102666.00;;;2.30
23208;BMP180;11773;52.570;13.052;2024-01-11T06:24:29;102671.00;;;2.30
23208;BMP180;11773;52.570;13.052;2024-01-11T06:26:58;102663.00;;;2.30
23208;BMP180;11773;52.570;13.052;2024-01-11T06:29:28;102692.00;;;2.30
23208;BMP180;11773;52.570;13.052;2024-01-11T06:31:58;102668.00;;;2.40
23208;BMP180;11773;52.570;13.052;2024-01-11T06:34:28;102657.00;;;2.40
23208;BMP180;11773;52.570;13.052;2024-01-11T06:36:57;102660.00;;;2.40
23208;BMP180;11773;52.570;13.052;2024-01-11T06:39:27;102668.00;;;2.40
23208;BMP180;11773;52.570;13.052;2024-01-11T06:41:56;102673.00;;;2.40
23208;BMP180;11773;52.570;13.052;2024-01-11T06:44:26;102665.00;;;2.40
23208;BMP180;11773;52.570;13.052;2024-01-11T06:46:56;102667.00;;;2.40
23208;BMP180;11773;52.570;13.052;2024-01-11T06:49:25;102659.00;;;2.50
23208;BMP180;11773;52.570;13.052;2024-01-11T06:51:55;102684.00;;;2.50
23208;BMP180;11773;52.570;13.052;2024-01-11T06:54:24;102685.00;;;2.50
23208;BMP180;11773;52.570;13.052;2024-01-11T06:56:54;102657.00;;;2.50
23208;BMP180;11773;52.570;13.052;2024-01-11T06:59:24;102665.00;;;2.50
23208;BMP180;11773;52.570;13.052;2024-01-11T07:01:54;102657.00;;;2.50
23208;BMP180;11773;52.570;13.052;2024-01-11T07:04:24;102642.00;;;2.60
23208;BMP180;11773;52.570;13.052;2024-01-11T07:06:53;102648.00;;;2.60
23208;BMP180;11773;52.570;13.052;2024-01-11T07:09:23;102656.00;;;2.60
23208;BMP180;11773;52.570;13.052;2024-01-11T07:11:53;102662.00;;;2.60
23208;BMP180;11773;52.570;13.052;2024-01-11T07:14:23;102648.00;;;2.60
23208;BMP180;11773;52.570;13.052;2024-01-11T07:16:52;102671.00;;;2.60
23208;BMP180;11773;52.570;13.052;2024-01-11T07:19:22;102662.00;;;2.60
23208;BMP180;11773;52.570;13.052;2024-01-11T07:21:52;102665.00;;;2.60
23208;BMP180;11773;52.570;13.052;2024-01-11T07:24:21;102652.00;;;2.70
23208;BMP180;11773;52.570;13.052;2024-01-11T07:26:51;102648.00;;;2.70
23208;BMP180;11773;52.570;13.052;2024-01-11T07:29:22;102651.00;;;2.70
23208;BMP180;11773;52.570;13.052;2024-01-11T07:31:52;102648.00;;;2.70
23208;BMP180;11773;52.570;13.052;2024-01-11T07:34:22;102624.00;;;2.70
23208;BMP180;11773;52.570;13.052;2024-01-11T07:36:54;102660.00;;;2.70
23208;BMP180;11773;52.570;13.052;2024-01-11T07:39:24;102647.00;;;2.70
23208;BMP180;11773;52.570;13.052;2024-01-11T07:41:54;102649.00;;;2.70
23208;BMP180;11773;52.570;13.052;2024-01-11T07:44:24;102652.00;;;2.70
23208;BMP180;11773;52.570;13.052;2024-01-11T07:46:53;102670.00;;;2.80
23208;BMP180;11773;52.570;13.052;2024-01-11T07:49:25;102667.00;;;2.80
23208;BMP180;11773;52.570;13.052;2024-01-11T07:51:54;102669.00;;;2.80
23208;BMP180;11773;52.570;13.052;2024-01-11T07:54:25;102662.00;;;2.80
23208;BMP180;11773;52.570;13.052;2024-01-11T07:56:54;102640.00;;;2.80
23208;BMP180;11773;52.570;13.052;2024-01-11T07:59:24;102630.00;;;2.80
23208;BMP180;11773;52.570;13.052;2024-01-11T08:01:53;102626.00;;;2.80
23208;BMP180;11773;52.570;13.052;2024-01-11T08:04:23;102640.00;;;2.90
23208;BMP180;11773;52.570;13.052;2024-01-11T08:06:53;102640.00;;;2.90
23208;BMP180;11773;52.570;13.052;2024-01-11T08:09:23;102642.00;;;2.90
23208;BMP180;11773;52.570;13.052;2024-01-11T08:11:52;102648.00;;;2.90
23208;BMP180;11773;52.570;13.052;2024-01-11T08:14:23;102638.00;;;2.90
23208;BMP180;11773;52.570;13.052;2024-01-11T08:16:53;102645.00;;;3.00
23208;BMP180;11773;52.570;13.052;2024-01-11T08:19:23;102648.00;;;3.00
23208;BMP180;11773;52.570;13.052;2024-01-11T08:21:52;102646.00;;;3.00
23208;BMP180;11773;52.570;13.052;2024-01-11T08:24:23;102648.00;;;3.10
23208;BMP180;11773;52.570;13.052;2024-01-11T08:26:54;102635.00;;;3.10
23208;BMP180;11773;52.570;13.052;2024-01-11T08:29:23;102653.00;;;3.10
23208;BMP180;11773;52.570;13.052;2024-01-11T08:31:53;102653.00;;;3.10
23208;BMP180;11773;52.570;13.052;2024-01-11T08:34:27;102633.00;;;3.10
23208;BMP180;11773;52.570;13.052;2024-01-11T08:36:57;102646.00;;;3.10
23208;BMP180;11773;52.570;13.052;2024-01-11T08:39:26;102631.00;;;3.10
23208;BMP180;11773;52.570;13.052;2024-01-11T08:41:56;102653.00;;;3.10
23208;BMP180;11773;52.570;13.052;2024-01-11T08:44:26;102631.00;;;3.20
23208;BMP180;11773;52.570;13.052;2024-01-11T08:46:57;102642.00;;;3.20
23208;BMP180;11773;52.570;13.052;2024-01-11T08:49:28;102628.00;;;3.20
23208;BMP180;11773;52.570;13.052;2024-01-11T08:51:57;102645.00;;;3.20
23208;BMP180;11773;52.570;13.052;2024-01-11T08:54:27;102616.00;;;3.20
23208;BMP180;11773;52.570;13.052;2024-01-11T08:56:56;102614.00;;;3.30
23208;BMP180;11773;52.570;13.052;2024-01-11T08:59:26;102632.00;;;3.30
23208;BMP180;11773;52.570;13.052;2024-01-11T09:01:56;102626.00;;;3.30
23208;BMP180;11773;52.570;13.052;2024-01-11T09:04:27;102612.00;;;3.30
23208;BMP180;11773;52.570;13.052;2024-01-11T09:06:58;102604.00;;;3.30
23208;BMP180;11773;52.570;13.052;2024-01-11T09:09:28;102596.00;;;3.40
23208;BMP180;11773;52.570;13.052;2024-01-11T09:11:59;102599.00;;;3.40
23208;BMP180;11773;52.570;13.052;2024-01-11T09:14:29;102585.00;;;3.40
23208;BMP180;11773;52.570;13.052;2024-01-11T09:16:58;102584.00;;;3.50
23208;BMP180;11773;52.570;13.052;2024-01-11T09:19:28;102588.00;;;3.50
23208;BMP180;11773;52.570;13.052;2024-01-11T09:21:58;102580.00;;;3.50
23208;BMP180;11773;52.570;13.052;2024-01-11T09:24:27;102586.00;;;3.60
23208;BMP180;11773;52.570;13.052;2024-01-11T09:26:59;102580.00;;;3.60
23208;BMP180;11773;52.570;13.052;2024-01-11T09:29:28;102606.00;;;3.60
23208;BMP180;11773;52.570;13.052;2024-01-11T09:31:59;102612.00;;;3.60
23208;BMP180;11773;52.570;13.052;2024-01-11T09:34:29;102616.00;;;3.60
23208;BMP180;11773;52.570;13.052;2024-01-11T09:37:00;102605.00;;;3.60
23208;BMP180;11773;52.570;13.052;2024-01-11T09:39:29;102605.00;;;3.70
23208;BMP180;11773;52.570;13.052;2024-01-11T09:42:07;102607.00;;;3.70
23208;BMP180;11773;52.570;13.052;2024-01-11T09:44:39;102600.00;;;3.70
23208;BMP180;11773;52.570;13.052;2024-01-11T09:47:12;102601.00;;;3.70
23208;BMP180;11773;52.570;13.052;2024-01-11T09:49:49;102606.00;;;3.70
23208;BMP180;11773;52.570;13.052;2024-01-11T09:52:23;102627.00;;;3.70
23208;BMP180;11773;52.570;13.052;2024-01-11T09:54:55;102625.00;;;3.80
23208;BMP180;11773;52.570;13.052;2024-01-11T09:57:32;102643.00;;;3.80
23208;BMP180;11773;52.570;13.052;2024-01-11T10:00:06;102633.00;;;3.80
23208;BMP180;11773;52.570;13.052;2024-01-11T10:02:37;102626.00;;;3.80
23208;BMP180;11773;52.570;13.052;2024-01-11T10:05:08;102620.00;;;3.80
23208;BMP180;11773;52.570;13.052;2024-01-11T10:07:39;102620.00;;;3.90
23208;BMP180;11773;52.570;13.052;2024-01-11T10:10:10;102610.00;;;3.90
23208;BMP180;11773;52.570;13.052;2024-01-11T10:12:39;102610.00;;;3.90
23208;BMP180;11773;52.570;13.052;2024-01-11T10:15:10;102619.00;;;3.90
23208;BMP180;11773;52.570;13.052;2024-01-11T10:17:46;102634.00;;;4.00
23208;BMP180;11773;52.570;13.052;2024-01-11T10:20:16;102615.00;;;3.90
23208;BMP180;11773;52.570;13.052;2024-01-11T10:22:48;102627.00;;;4.00
23208;BMP180;11773;52.570;13.052;2024-01-11T10:25:18;102621.00;;;4.00
23208;BMP180;11773;52.570;13.052;2024-01-11T10:27:48;102611.00;;;4.10
23208;BMP180;11773;52.570;13.052;2024-01-11T10:30:18;102594.00;;;4.10
23208;BMP180;11773;52.570;13.052;2024-01-11T10:32:57;102582.00;;;4.10
23208;BMP180;11773;52.570;13.052;2024-01-11T10:35:28;102571.00;;;4.10
23208;BMP180;11773;52.570;13.052;2024-01-11T10:38:00;102566.00;;;4.20
23208;BMP180;11773;52.570;13.052;2024-01-11T10:40:31;102561.00;;;4.20
23208;BMP180;11773;52.570;13.052;2024-01-11T10:43:03;102561.00;;;4.20
23208;BMP180;11773;52.570;13.052;2024-01-11T10:45:35;102568.00;;;4.20
23208;BMP180;11773;52.570;13.052;2024-01-11T10:48:15;102588.00;;;4.20
23208;BMP180;11773;52.570;13.052;2024-01-11T10:50:48;102608.00;;;4.20
23208;BMP180;11773;52.570;13.052;2024-01-11T10:53:42;102599.00;;;4.30
23208;BMP180;11773;52.570;13.052;2024-01-11T10:56:16;102588.00;;;4.20
23208;BMP180;11773;52.570;13.052;2024-01-11T10:58:47;102589.00;;;4.30
23208;BMP180;11773;52.570;13.052;2024-01-11T11:01:18;102591.00;;;4.30
23208;BMP180;11773;52.570;13.052;2024-01-11T11:03:53;102583.00;;;4.30
23208;BMP180;11773;52.570;13.052;2024-01-11T11:06:26;102587.00;;;4.30
23208;BMP180;11773;52.570;13.052;2024-01-11T11:08:57;102587.00;;;4.30
23208;BMP180;11773;52.570;13.052;2024-01-11T11:11:30;102583.00;;;4.40
23208;BMP180;11773;52.570;13.052;2024-01-11T11:14:01;102574.00;;;4.40
23208;BMP180;11773;52.570;13.052;2024-01-11T11:16:32;102568.00;;;4.40
23208;BMP180;11773;52.570;13.052;2024-01-11T11:19:02;102582.00;;;4.40
23208;BMP180;11773;52.570;13.052;2024-01-11T11:21:32;102578.00;;;4.40
23208;BMP180;11773;52.570;13.052;2024-01-11T11:24:01;102595.00;;;4.50
23208;BMP180;11773;52.570;13.052;2024-01-11T11:26:33;102584.00;;;4.50
23208;BMP180;11773;52.570;13.052;2024-01-11T11:29:04;102597.00;;;4.50
23208;BMP180;11773;52.570;13.052;2024-01-11T11:31:46;102617.00;;;4.50
23208;BMP180;11773;52.570;13.052;2024-01-11T11:34:21;102609.00;;;4.50
23208;BMP180;11773;52.570;13.052;2024-01-11T11:36:52;102615.00;;;4.50
23208;BMP180;11773;52.570;13.052;2024-01-11T11:39:24;102622.00;;;4.50
23208;BMP180;11773;52.570;13.052;2024-01-11T11:41:53;102624.00;;;4.50
23208;BMP180;11773;52.570;13.052;2024-01-11T11:44:25;102625.00;;;4.50
23208;BMP180;11773;52.570;13.052;2024-01-11T11:46:55;102622.00;;;4.50
23208;BMP180;11773;52.570;13.052;2024-01-11T11:49:52;102619.00;;;4.60
23208;BMP180;11773;52.570;13.052;2024-01-11T11:52:00;102608.00;;;4.60
23208;BMP180;11773;52.570;13.052;2024-01-11T11:54:29;102600.00;;;4.60
23208;BMP180;11773;52.570;13.052;2024-01-11T11:56:59;102595.00;;;4.60
23208;BMP180;11773;52.570;13.052;2024-01-11T11:59:30;102594.00;;;4.60
23208;BMP180;11773;52.570;13.052;2024-01-11T12:02:01;102589.00;;;4.60
23208;BMP180;11773;52.570;13.052;2024-01-11T12:04:31;102583.00;;;4.60
23208;BMP180;11773;52.570;13.052;2024-01-11T12:07:01;102611.00;;;4.60
23208;BMP180;11773;52.570;13.052;2024-01-11T12:09:31;102612.00;;;4.70
23208;BMP180;11773;52.570;13.052;2024-01-11T12:12:01;102590.00;;;4.70
23208;BMP180;11773;52.570;13.052;2024-01-11T12:14:34;102588.00;;;4.70
23208;BMP180;11773;52.570;13.052;2024-01-11T12:17:04;102596.00;;;4.70
23208;BMP180;11773;52.570;13.052;2024-01-11T12:19:35;102588.00;;;4.70
23208;BMP180;11773;52.570;13.052;2024-01-11T12:22:04;102585.00;;;4.80
23208;BMP180;11773;52.570;13.052;2024-01-11T12:24:34;102591.00;;;4.70
23208;BMP180;11773;52.570;13.052;2024-01-11T12:27:04;102593.00;;;4.80
23208;BMP180;11773;52.570;13.052;2024-01-11T12:29:34;102579.00;;;4.80
23208;BMP180;11773;52.570;13.052;2024-01-11T12:32:05;102561.00;;;4.80
23208;BMP180;11773;52.570;13.052;2024-01-11T12:34:35;102557.00;;;4.80
23208;BMP180;11773;52.570;13.052;2024-01-11T12:37:06;102551.00;;;4.80
23208;BMP180;11773;52.570;13.052;2024-01-11T12:39:39;102551.00;;;4.80
23208;BMP180;11773;52.570;13.052;2024-01-11T12:42:08;102544.00;;;4.80
23208;BMP180;11773;52.570;13.052;2024-01-11T12:44:38;102548.00;;;4.90
23208;BMP180;11773;52.570;13.052;2024-01-11T12:47:09;102561.00;;;4.90
23208;BMP180;11773;52.570;13.052;2024-01-11T12:49:42;102558.00;;;4.90
23208;BMP180;11773;52.570;13.052;2024-01-11T12:52:18;102554.00;;;4.90
23208;BMP180;11773;52.570;13.052;2024-01-11T12:54:53;102545.00;;;4.90
23208;BMP180;11773;52.570;13.052;2024-01-11T12:57:22;102566.00;;;5.00
23208;BMP180;11773;52.570;13.052;2024-01-11T12:59:53;102546.00;;;5.00
23208;BMP180;11773;52.570;13.052;2024-01-11T13:02:23;102544.00;;;5.00
23208;BMP180;11773;52.570;13.052;2024-01-11T13:04:52;102539.00;;;5.00
23208;BMP180;11773;52.570;13.052;2024-01-11T13:07:22;102541.00;;;5.10
23208;BMP180;11773;52.570;13.052;2024-01-11T13:09:51;102537.00;;;5.10
23208;BMP180;11773;52.570;13.052;2024-01-11T13:12:21;102538.00;;;5.10
23208;BMP180;11773;52.570;13.052;2024-01-11T13:14:51;102544.00;;;5.20
23208;BMP180;11773;52.570;13.052;2024-01-11T13:17:21;102539.00;;;5.20
23208;BMP180;11773;52.570;13.052;2024-01-11T13:19:51;102545.00;;;5.20
23208;BMP180;11773;52.570;13.052;2024-01-11T13:22:21;102532.00;;;5.20
23208;BMP180;11773;52.570;13.052;2024-01-11T13:24:50;102530.00;;;5.20
23208;BMP180;11773;52.570;13.052;2024-01-11T13:27:20;102510.00;;;5.30
23208;BMP180;11773;52.570;13.052;2024-01-11T13:29:49;102511.00;;;5.30
23208;BMP180;11773;52.570;13.052;2024-01-11T13:32:19;102498.00;;;5.30
23208;BMP180;11773;52.570;13.052;2024-01-11T13:34:50;102511.00;;;5.30
23208;BMP180;11773;52.570;13.052;2024-01-11T13:37:23;102487.00;;;5.30
23208;BMP180;11773;52.570;13.052;2024-01-11T13:39:52;102476.00;;;5.30
23208;BMP180;11773;52.570;13.052;2024-01-11T13:42:22;102481.00;;;5.30
23208;BMP180;11773;52.570;13.052;2024-01-11T13:44:51;102480.00;;;5.30
23208;BMP180;11773;52.570;13.052;2024-01-11T13:47:21;102490.00;;;5.30
23208;BMP180;11773;52.570;13.052;2024-01-11T13:49:51;102493.00;;;5.30
23208;BMP180;11773;52.570;13.052;2024-01-11T13:52:20;102492.00;;;5.30
23208;BMP180;11773;52.570;13.052;2024-01-11T13:54:50;102493.00;;;5.40
23208;BMP180;11773;52.570;13.052;2024-01-11T13:57:20;102487.00;;;5.40
23208;BMP180;11773;52.570;13.052;2024-01-11T13:59:49;102489.00;;;5.40
23208;BMP180;11773;52.570;13.052;2024-01-11T14:02:19;102489.00;;;5.40
23208;BMP180;11773;52.570;13.052;2024-01-11T14:04:49;102490.00;;;5.40
23208;BMP180;11773;52.570;13.052;2024-01-11T14:07:19;102486.00;;;5.40
23208;BMP180;11773;52.570;13.052;2024-01-11T14:09:49;102497.00;;;5.40
23208;BMP180;11773;52.570;13.052;2024-01-11T14:12:18;102483.00;;;5.40